Time;durP1;ratioP1;P1;durP2;ratioP2;P2;SDS_P1;SDS_P2;PMS_P1;PMS_P2;Temp;Humidity;BMP_temperature;BMP_pressure;BME280_temperature;BME280_humidity;BME280_pressure;Samples;Min_cycle;Max_cycle;Signal;HPM_P1;HPM_P2
2023/08/24 00:03:29;;;;;;;4.08;2.55;;;;;;;20.58;87.80;100909.67;5275175;55;1138642;-67
2023/08/24 00:08:35;;;;;;;11.33;3.35;;;;;;;20.50;88.25;100903.81;5218954;55;1138766;-67
2023/08/24 00:13:46;;;;;;;7.62;2.90;;;;;;;20.53;88.84;100900.78;5105939;56;1140892;-66
2023/08/24 00:18:49;;;;;;;8.93;3.15;;;;;;;20.65;89.50;100902.06;5181520;55;1140324;-67
2023/08/24 00:23:55;;;;;;;6.75;3.42;;;;;;;20.72;89.58;100898.19;5009326;56;1138703;-67
2023/08/24 00:29:01;;;;;;;5.03;2.75;;;;;;;20.74;88.93;100901.54;4984970;57;1138590;-66
2023/08/24 00:34:06;;;;;;;10.18;3.10;;;;;;;20.76;89.21;100904.05;5005218;57;1138750;-66
2023/08/24 00:39:12;;;;;;;3.58;2.83;;;;;;;20.78;89.60;100900.16;4985126;57;1140636;-65
2023/08/24 00:44:18;;;;;;;6.03;2.47;;;;;;;20.82;89.60;100900.14;4987238;58;1138817;-66
2023/08/24 00:49:25;;;;;;;2.95;2.75;;;;;;;20.79;89.32;100904.52;4986882;58;1139035;-67
2023/08/24 00:54:47;;;;;;;;;;;;;;;20.84;89.82;100906.69;5011227;57;1139068;-66
2023/08/24 00:59:53;;;;;;;4.22;2.52;;;;;;;20.95;90.06;100913.84;5008586;57;976114;-67
2023/08/24 01:05:00;;;;;;;9.00;2.87;;;;;;;21.02;90.06;100911.30;4990885;57;1136709;-65
2023/08/24 01:10:09;;;;;;;8.10;3.42;;;;;;;21.07;89.77;100914.30;5009609;57;1138649;-66
2023/08/24 01:15:22;;;;;;;6.95;3.33;;;;;;;20.88;88.67;100912.89;4990036;57;1138466;-67
2023/08/24 01:20:28;;;;;;;7.95;3.15;;;;;;;20.84;89.68;100908.88;4988741;57;1138854;-67
2023/08/24 01:25:50;;;;;;;12.40;3.15;;;;;;;20.73;89.17;100920.53;5020433;57;1138852;-66
2023/08/24 01:30:56;;;;;;;3.40;2.92;;;;;;;20.61;89.56;100920.92;4970098;58;1140976;-66
2023/08/24 01:36:01;;;;;;;3.55;2.80;;;;;;;20.55;90.26;100918.91;4966202;56;1138829;-66
2023/08/24 01:41:20;;;;;;;13.20;3.17;;;;;;;20.57;90.84;100911.52;5115183;56;1138756;-66
2023/08/24 01:46:29;;;;;;;4.03;2.77;;;;;;;20.63;90.98;100914.84;5030821;57;1140798;-67
2023/08/24 01:51:37;;;;;;;3.40;2.92;;;;;;;20.63;90.98;100914.84;5134652;56;1138645;-65
2023/08/24 01:56:44;;;;;;;8.93;3.17;;;;;;;20.63;91.06;100911.31;5062927;55;1138658;-67
2023/08/24 02:01:50;;;;;;;8.06;3.12;;;;;;;20.60;91.21;100908.50;5131001;55;1138695;-67
2023/08/24 02:06:56;;;;;;;9.65;4.15;;;;;;;20.56;91.10;100909.84;5127793;56;1138824;-63
2023/08/24 02:12:02;;;;;;;13.88;3.20;;;;;;;20.49;91.04;100904.82;5032314;57;1138584;-64
2023/08/24 02:17:08;;;;;;;5.37;2.77;;;;;;;20.45;91.45;100900.83;5031977;55;1141076;-63
2023/08/24 02:22:14;;;;;;;7.92;3.12;;;;;;;20.38;91.32;100897.14;5051527;57;1138682;-62
2023/08/24 02:27:19;;;;;;;8.05;2.83;;;;;;;20.37;91.16;100899.50;5025297;56;1138651;-63
2023/08/24 02:32:25;;;;;;;6.84;3.16;;;;;;;20.31;90.98;100902.36;5187838;55;1139129;-62
2023/08/24 02:37:31;;;;;;;7.60;4.50;;;;;;;20.10;90.34;100904.75;5136553;56;1138870;-64
2023/08/24 02:42:37;;;;;;;4.28;3.30;;;;;;;19.84;90.19;100898.77;5115617;56;1138893;-64
2023/08/24 02:47:42;;;;;;;6.00;3.37;;;;;;;19.72;91.90;100900.09;5115692;56;1138943;-63
2023/08/24 02:52:48;;;;;;;4.22;3.47;;;;;;;19.53;91.84;100903.98;5136109;56;1138778;-63
2023/08/24 02:57:54;;;;;;;9.90;3.65;;;;;;;19.53;91.84;100903.98;5263960;54;1138655;-64
2023/08/24 03:02:59;;;;;;;5.33;3.10;;;;;;;19.50;93.15;100897.10;5291734;54;1138782;-64
2023/08/24 03:08:05;;;;;;;7.57;3.67;;;;;;;19.49;93.00;100896.77;5228645;55;1138503;-64
2023/08/24 03:13:12;;;;;;;20.00;3.12;;;;;;;19.27;92.66;100902.23;5207890;55;1138773;-62
2023/08/24 03:18:18;;;;;;;5.60;2.70;;;;;;;19.10;93.49;100898.35;5207103;55;1140722;-64
2023/08/24 03:23:24;;;;;;;5.75;2.90;;;;;;;18.96;94.14;100897.99;5204230;55;1138862;-62
2023/08/24 03:28:30;;;;;;;6.53;2.77;;;;;;;19.01;95.38;100893.98;5227955;55;1138689;-63
2023/08/24 03:33:37;;;;;;;5.80;2.62;;;;;;;19.10;95.73;100895.17;5226518;55;1138812;-64
2023/08/24 03:38:43;;;;;;;4.33;3.58;;;;;;;19.16;96.00;100897.20;5207206;55;1139176;-64
2023/08/24 03:43:49;;;;;;;7.75;3.67;;;;;;;19.20;96.30;100899.06;5227677;55;1138707;-64
2023/08/24 03:48:54;;;;;;;4.33;3.72;;;;;;;19.24;96.52;100881.14;5207797;54;1139116;-64
2023/08/24 03:54:01;;;;;;;4.00;3.20;;;;;;;19.17;95.78;100877.43;5208235;55;1138964;-64
2023/08/24 03:59:07;;;;;;;5.10;2.90;;;;;;;19.03;95.09;100889.31;5260863;55;1138770;-64
2023/08/24 04:04:13;;;;;;;6.58;2.80;;;;;;;18.66;94.27;100897.23;5240436;55;1138488;-64
2023/08/24 04:09:19;;;;;;;3.58;2.70;;;;;;;18.35;95.12;100914.81;5240027;55;1138568;-63
2023/08/24 04:14:26;;;;;;;5.15;2.60;;;;;;;18.11;96.60;100903.48;5239773;55;1138813;-64
2023/08/24 04:19:32;;;;;;;8.38;3.00;;;;;;;18.03;98.25;100902.91;5260524;55;1138657;-63
2023/08/24 04:24:37;;;;;;;7.40;3.22;;;;;;;18.03;100.00;100907.42;5224479;55;1138632;-65
2023/08/24 04:29:43;;;;;;;12.40;4.20;;;;;;;18.26;100.00;100909.92;5147730;55;1141177;-65
2023/08/24 04:34:49;;;;;;;5.08;3.05;;;;;;;18.31;100.00;100910.30;5167623;55;1142865;-65
2023/08/24 04:39:54;;;;;;;6.80;4.35;;;;;;;18.23;100.00;100920.94;5147237;55;1140891;-67
2023/08/24 04:45:00;;;;;;;8.67;3.27;;;;;;;18.13;100.00;100933.11;5147943;55;1140942;-65
2023/08/24 04:50:07;;;;;;;9.85;3.83;;;;;;;18.09;100.00;100926.88;5168254;55;1140932;-65
2023/08/24 04:55:12;;;;;;;6.70;3.35;;;;;;;18.04;100.00;100927.84;5164235;55;1140858;-65
2023/08/24 05:00:18;;;;;;;7.55;3.75;;;;;;;18.02;100.00;100936.06;5240073;55;1140767;-67
2023/08/24 05:05:24;;;;;;;9.40;3.90;;;;;;;18.07;100.00;100933.73;5240320;55;1140733;-65
2023/08/24 05:10:31;;;;;;;6.92;3.45;;;;;;;18.13;100.00;100933.11;5224564;55;1140763;-66
2023/08/24 05:15:37;;;;;;;10.38;3.42;;;;;;;18.16;100.00;100924.77;5163849;55;1141046;-65
2023/08/24 05:20:43;;;;;;;13.00;3.75;;;;;;;18.27;100.00;100931.69;5227179;55;1142660;-67
2023/08/24 05:25:48;;;;;;;5.60;4.25;;;;;;;18.32;100.00;100920.01;5167774;55;1143079;-65
2023/08/24 05:30:55;;;;;;;7.60;4.05;;;;;;;18.45;100.00;100927.10;5150818;55;1140636;-68
2023/08/24 05:36:01;;;;;;;6.57;4.10;;;;;;;18.65;100.00;100925.02;5136705;55;1140748;-67
2023/08/24 05:41:06;;;;;;;7.33;4.05;;;;;;;18.64;100.00;100922.00;5167967;55;1140887;-65
2023/08/24 05:46:12;;;;;;;11.90;4.62;;;;;;;18.68;100.00;100920.69;5147648;55;1140805;-66
2023/08/24 05:51:17;;;;;;;10.03;4.03;;;;;;;18.66;100.00;100917.33;5147063;55;1143049;-65
2023/08/24 05:56:24;;;;;;;6.37;3.87;;;;;;;18.70;100.00;100911.16;5240742;54;1142986;-67
2023/08/24 06:01:29;;;;;;;10.05;5.25;;;;;;;18.83;100.00;100908.84;5293416;55;1140813;-65
2023/08/24 06:06:36;;;;;;;10.00;4.28;;;;;;;19.05;100.00;100912.27;5273093;54;1142916;-63
2023/08/24 06:11:41;;;;;;;8.70;4.03;;;;;;;19.21;100.00;100914.98;5273313;55;1142564;-63
2023/08/24 06:16:48;;;;;;;3.45;2.87;;;;;;;19.35;100.00;100914.84;5281134;55;1140655;-64
2023/08/24 06:21:55;;;;;;;20.38;3.25;;;;;;;19.52;100.00;100917.90;5164756;56;1140965;-65
2023/08/24 06:27:00;;;;;;;3.63;2.83;;;;;;;19.60;100.00;100911.68;5146790;56;1142849;-64
2023/08/24 06:32:06;;;;;;;5.63;2.67;;;;;;;19.69;100.00;100912.03;5166690;56;1140853;-64
2023/08/24 06:37:12;;;;;;;3.67;1.98;;;;;;;19.97;100.00;100918.71;5147617;56;1140662;-62
2023/08/24 06:42:17;;;;;;;5.45;1.77;;;;;;;20.33;100.00;100919.62;5146835;56;1140714;-64
2023/08/24 06:47:25;;;;;;;3.98;1.72;;;;;;;20.80;100.00;100904.02;5147236;56;1140860;-64
2023/08/24 06:52:30;;;;;;;4.30;1.55;;;;;;;21.10;100.00;100908.55;5117945;55;1141115;-63
2023/08/24 06:57:36;;;;;;;7.10;1.80;;;;;;;21.29;100.00;100901.39;5081685;55;1140936;-63
2023/08/24 07:02:42;;;;;;;2.10;1.32;;;;;;;21.42;99.69;100904.82;5073306;55;1140760;-63
2023/08/24 07:07:50;;;;;;;3.87;1.45;;;;;;;21.66;97.19;100897.08;5093421;56;1138862;-64
2023/08/24 07:12:56;;;;;;;6.55;2.10;;;;;;;21.79;95.43;100904.52;5073459;55;1138943;-66
2023/08/24 07:18:03;;;;;;;10.60;1.75;;;;;;;21.87;94.75;100905.78;5073585;56;1138816;-63
2023/08/24 07:23:09;;;;;;;1.92;1.80;;;;;;;21.96;94.56;100908.73;5093316;56;1140928;-63
2023/08/24 07:28:14;;;;;;;9.13;2.10;;;;;;;22.17;94.39;100913.42;5073099;55;1138768;-63
2023/08/24 07:33:21;;;;;;;2.83;1.37;;;;;;;22.46;93.26;100922.34;5073354;56;1138589;-64
2023/08/24 07:38:27;;;;;;;4.70;1.63;;;;;;;22.58;89.79;100920.03;5073729;56;1138595;-65
2023/08/24 07:43:32;;;;;;;1.95;1.27;;;;;;;22.51;87.74;100929.88;5092272;56;1138501;-64
2023/08/24 07:48:38;;;;;;;1.82;0.90;;;;;;;22.50;86.58;100930.06;5072423;56;1138661;-63
2023/08/24 07:53:44;;;;;;;3.08;1.32;;;;;;;22.51;84.72;100935.27;5072248;56;1138980;-65
2023/08/24 07:58:49;;;;;;;2.65;1.12;;;;;;;22.60;84.85;100936.03;5009061;57;1138581;-63
2023/08/24 08:03:55;;;;;;;6.28;1.40;;;;;;;22.68;83.43;100939.96;4989526;57;1138387;-64
2023/08/24 08:09:01;;;;;;;6.22;1.00;;;;;;;22.83;84.10;100937.27;4992290;57;1138922;-62
2023/08/24 08:14:07;;;;;;;1.37;0.90;;;;;;;22.99;81.60;100931.16;5091790;56;1138984;-66
2023/08/24 08:19:12;;;;;;;6.25;1.20;;;;;;;23.25;80.43;100934.65;5068769;56;1138815;-64
2023/08/24 08:24:18;;;;;;;6.67;1.50;;;;;;;23.39;80.52;100935.62;4989396;57;1138598;-65
2023/08/24 08:29:24;;;;;;;1.98;0.95;;;;;;;23.67;79.77;100935.22;4989446;57;1138942;-66
2023/08/24 08:34:30;;;;;;;3.55;1.60;;;;;;;23.89;75.08;100936.01;5009288;56;1138703;-64
2023/08/24 08:39:35;;;;;;;2.85;0.60;;;;;;;24.12;76.27;100937.13;5016960;56;1138798;-65
2023/08/24 08:44:44;;;;;;;0.85;0.70;;;;;;;24.29;70.26;100930.94;5020666;57;1138659;-65
2023/08/24 08:49:50;;;;;;;1.90;1.15;;;;;;;24.48;70.64;100936.95;5058096;57;1138780;-65
2023/08/24 08:54:56;;;;;;;1.87;0.90;;;;;;;24.57;67.96;100938.48;5071443;57;1138924;-64
2023/08/24 09:00:01;;;;;;;2.02;1.00;;;;;;;24.60;67.30;100940.77;5011464;57;1139263;-65
2023/08/24 09:05:08;;;;;;;0.62;0.62;;;;;;;24.70;64.53;100943.12;5126336;56;1138781;-67
2023/08/24 09:10:13;;;;;;;0.87;0.60;;;;;;;24.78;64.77;100947.83;5114894;55;1138604;-65
2023/08/24 09:15:29;;;;;;;0.50;0.50;;;;;;;24.94;66.33;100943.97;5116393;55;1138743;-66
2023/08/24 09:20:35;;;;;;;1.30;0.65;;;;;;;25.06;64.73;100940.98;5093068;55;1138683;-65
2023/08/24 09:25:47;;;;;;;1.65;1.00;;;;;;;25.24;65.05;100931.78;5136448;55;1138636;-64
2023/08/24 09:30:56;;;;;;;1.27;1.00;;;;;;;25.48;63.47;100939.86;5116107;55;1138724;-64
2023/08/24 09:36:03;;;;;;;1.65;1.30;;;;;;;25.48;59.83;100926.84;5115659;55;1138725;-65
2023/08/24 09:41:08;;;;;;;19.50;13.73;;;;;;;25.55;61.03;100924.95;5104668;56;1138857;-64
2023/08/24 09:46:22;;;;;;;6.60;1.80;;;;;;;25.61;59.45;100907.89;5187847;55;1142885;-65
2023/08/24 09:51:28;;;;;;;10.80;2.50;;;;;;;25.69;56.11;100909.57;5121181;55;1138891;-66
2023/08/24 09:56:40;;;;;;;3.65;1.10;;;;;;;25.69;57.81;100903.63;5121406;54;1140992;-65
2023/08/24 10:01:50;;;;;;;4.50;1.25;;;;;;;25.72;54.14;100911.34;5297895;55;1139012;-65
2023/08/24 10:07:08;;;;;;;0.90;0.80;;;;;;;25.85;57.89;100902.38;5120576;55;1138521;-65
2023/08/24 10:12:16;;;;;;;3.80;1.77;;;;;;;25.98;54.98;100897.46;5274151;55;1138554;-66
2023/08/24 10:17:23;;;;;;;0.70;0.70;;;;;;;26.10;53.56;100887.66;5083010;55;1138658;-67
2023/08/24 10:22:30;;;;;;;1.45;1.35;;;;;;;26.32;55.49;100889.61;5133358;56;1138831;-65
2023/08/24 10:27:37;;;;;;;3.08;1.40;;;;;;;26.47;53.12;100876.10;5277300;55;1138661;-66
2023/08/24 10:32:45;;;;;;;2.62;0.70;;;;;;;26.58;54.02;100870.00;5122003;54;1138740;-67
2023/08/24 10:37:54;;;;;;;0.93;0.80;;;;;;;26.74;55.39;100859.17;5297831;55;1138746;-65
2023/08/24 10:43:10;;;;;;;3.08;0.93;;;;;;;26.83;53.45;100865.20;5124472;55;1138589;-67
2023/08/24 10:48:13;;;;;;;1.57;1.47;;;;;;;26.74;51.49;100858.34;5107185;56;1138683;-65
2023/08/24 10:53:39;;;;;;;4.53;1.32;;;;;;;26.75;51.16;100845.08;5273173;55;1138850;-66
2023/08/24 10:58:46;;;;;;;4.87;1.12;;;;;;;26.82;52.95;100850.80;5120008;56;1138679;-65
2023/08/24 11:03:57;;;;;;;8.83;2.27;;;;;;;26.96;52.56;100847.51;5276110;55;1138750;-64
2023/08/24 11:09:15;;;;;;;1.93;0.90;;;;;;;27.20;53.89;100837.73;5139478;55;1138911;-64
2023/08/24 11:14:30;;;;;;;1.92;1.20;;;;;;;27.45;53.83;100826.37;5276733;55;1138767;-67
2023/08/24 11:19:32;;;;;;;7.17;1.30;;;;;;;27.42;52.59;100824.09;5120235;55;1138536;-67
2023/08/24 11:24:37;;;;;;;7.23;1.40;;;;;;;27.46;53.96;100819.05;5277146;55;1138758;-66
2023/08/24 11:29:43;;;;;;;5.97;1.12;;;;;;;27.45;55.14;100813.31;5141716;55;1138515;-64
2023/08/24 11:34:50;;;;;;;3.98;1.50;;;;;;;27.74;54.36;100809.92;5277377;55;1138707;-65
2023/08/24 11:39:55;;;;;;;1.72;1.62;;;;;;;27.91;54.23;100805.56;5121360;55;1138950;-65
2023/08/24 11:45:01;;;;;;;1.20;1.20;;;;;;;28.08;53.69;100808.52;5276691;55;1138864;-67
2023/08/24 11:50:08;;;;;;;1.60;1.32;;;;;;;28.04;52.16;100809.19;5240451;55;1138969;-65
2023/08/24 11:55:14;;;;;;;9.03;1.40;;;;;;;28.04;53.17;100811.91;5232057;55;1139038;-66
2023/08/24 12:00:22;;;;;;;1.80;1.07;;;;;;;28.32;53.82;100810.87;5248587;55;1138612;-64
2023/08/24 12:05:28;;;;;;;2.95;1.17;;;;;;;28.44;53.37;100800.87;5207830;55;1138597;-67
2023/08/24 12:10:35;;;;;;;9.85;1.82;;;;;;;28.49;51.78;100806.47;5214040;55;1138890;-66
2023/08/24 12:15:42;;;;;;;2.00;1.22;;;;;;;28.57;52.76;100787.08;5227978;55;1138785;-66
2023/08/24 12:20:49;;;;;;;2.40;1.62;;;;;;;28.65;50.93;100788.66;5234110;55;1138687;-66
2023/08/24 12:25:56;;;;;;;7.93;1.73;;;;;;;28.80;52.23;100788.27;5220431;55;1138613;-66
2023/08/24 12:31:03;;;;;;;2.98;1.27;;;;;;;28.78;50.45;100784.38;5128171;55;1138928;-67
2023/08/24 12:36:08;;;;;;;4.08;1.27;;;;;;;28.68;52.28;100778.16;5147991;56;1138769;-66
2023/08/24 12:41:14;;;;;;;0.67;0.67;;;;;;;28.69;50.02;100776.27;5217821;55;1138542;-67
2023/08/24 12:46:20;;;;;;;5.60;1.52;;;;;;;28.64;50.84;100772.86;5183101;55;1138571;-66
2023/08/24 12:51:26;;;;;;;0.80;0.80;;;;;;;28.56;51.18;100766.40;5178203;55;1139043;-67
2023/08/24 12:56:31;;;;;;;3.65;1.30;;;;;;;28.57;51.15;100757.14;5226036;54;1138683;-66
2023/08/24 13:01:37;;;;;;;6.87;1.20;;;;;;;28.55;52.37;100759.30;5228709;54;1139043;-64
2023/08/24 13:06:43;;;;;;;3.60;1.85;;;;;;;28.34;51.35;100748.38;5263143;55;1138807;-65
2023/08/24 13:11:50;;;;;;;4.50;1.60;;;;;;;28.29;51.92;100750.11;5264016;55;1138709;-65
2023/08/24 13:16:56;;;;;;;2.37;1.40;;;;;;;28.22;50.94;100748.02;5281819;55;1138729;-66
2023/08/24 13:22:01;;;;;;;3.35;1.75;;;;;;;28.12;52.24;100749.05;5247441;55;1138840;-66
2023/08/24 13:27:10;;;;;;;10.23;2.12;;;;;;;28.04;52.22;100755.64;5100999;56;1138706;-65
2023/08/24 13:32:14;;;;;;;1.30;1.15;;;;;;;28.11;52.75;100751.49;5204715;55;1141199;-65
2023/08/24 13:37:20;;;;;;;5.85;1.50;;;;;;;28.22;52.67;100751.58;5326930;55;1138873;-65
2023/08/24 13:42:26;;;;;;;5.00;1.80;;;;;;;28.33;53.10;100737.19;5271111;55;1138607;-64
2023/08/24 13:47:32;;;;;;;0.93;0.88;;;;;;;28.57;53.26;100731.84;5247988;54;1138898;-66
2023/08/24 13:52:37;;;;;;;3.37;1.50;;;;;;;28.76;54.39;100723.89;5193320;54;1138600;-64
2023/08/24 13:57:44;;;;;;;9.15;1.70;;;;;;;28.80;52.62;100716.13;5224129;55;1138436;-67
2023/08/24 14:02:50;;;;;;;6.30;1.30;;;;;;;28.88;52.76;100708.96;5269703;55;1138722;-66
2023/08/24 14:07:56;;;;;;;2.60;1.27;;;;;;;28.82;52.83;100697.66;5236950;55;1138842;-64
2023/08/24 14:13:01;;;;;;;3.12;1.42;;;;;;;28.88;51.92;100688.55;5240070;55;1138853;-64
2023/08/24 14:18:07;;;;;;;5.78;1.47;;;;;;;28.98;50.85;100677.91;5228870;55;1138758;-64
2023/08/24 14:23:13;;;;;;;12.40;1.50;;;;;;;29.05;51.30;100675.89;5016552;57;1138977;-68
2023/08/24 14:28:38;;;;;;;5.97;1.42;;;;;;;29.10;50.18;100663.77;5149667;55;1140845;-65
2023/08/24 14:34:26;;;;;;;3.10;1.55;;;;;;;29.08;49.74;100675.95;5267754;55;1138921;-67
2023/08/24 14:40:28;;;;;;;2.75;1.40;;;;;;;29.03;50.32;100665.23;5225442;55;1138717;-65
2023/08/24 14:45:41;;;;;;;3.02;1.65;;;;;;;28.93;50.42;100655.47;5109385;55;1139076;-67
2023/08/24 14:50:46;;;;;;;6.20;2.12;;;;;;;28.93;49.18;100656.00;5145723;56;1138743;-64
2023/08/24 14:55:54;;;;;;;2.87;1.57;;;;;;;28.85;51.06;100653.64;5182457;55;1138678;-66
2023/08/24 15:01:00;;;;;;;6.22;2.02;;;;;;;28.84;49.63;100663.70;5237671;54;1139162;-65
2023/08/24 15:06:08;;;;;;;3.02;1.72;;;;;;;28.85;51.29;100655.00;5216185;55;1138539;-65
2023/08/24 15:11:16;;;;;;;5.58;1.80;;;;;;;28.94;50.71;100654.94;5228051;55;1138994;-65
2023/08/24 15:16:21;;;;;;;12.86;1.84;;;;;;;28.97;50.23;100652.58;5152925;55;1138763;-64
2023/08/24 15:21:28;;;;;;;5.95;1.62;;;;;;;28.95;50.61;100657.42;5082807;56;1140706;-64
2023/08/24 15:26:34;;;;;;;11.68;1.72;;;;;;;28.99;50.98;100652.34;5083890;56;1138787;-66
2023/08/24 15:31:40;;;;;;;10.50;1.70;;;;;;;29.04;51.27;100646.46;5092441;56;1140956;-65
2023/08/24 15:36:46;;;;;;;5.40;1.92;;;;;;;29.02;50.71;100635.53;5139095;53;1141029;-64
2023/08/24 15:41:52;;;;;;;2.65;1.65;;;;;;;29.03;50.66;100628.99;5171017;55;1138670;-66
2023/08/24 15:46:57;;;;;;;6.90;1.75;;;;;;;29.05;50.47;100617.33;5250531;55;1138673;-64
2023/08/24 15:52:03;;;;;;;5.28;1.50;;;;;;;28.98;50.05;100609.84;5239490;55;1138870;-65
2023/08/24 15:57:09;;;;;;;4.53;1.70;;;;;;;28.88;51.09;100609.05;5239740;55;1138722;-66
2023/08/24 16:02:15;;;;;;;7.83;2.42;;;;;;;28.78;50.82;100599.80;5260552;55;1138713;-65
2023/08/24 16:07:20;;;;;;;5.22;1.50;;;;;;;28.63;51.15;100602.98;5239774;55;1138903;-64
2023/08/24 16:12:26;;;;;;;8.53;1.93;;;;;;;28.54;51.58;100608.48;5239777;55;1140688;-64
2023/08/24 16:17:32;;;;;;;5.53;1.65;;;;;;;28.39;51.83;100606.22;5198352;55;1138649;-65
2023/08/24 16:22:38;;;;;;;5.30;1.42;;;;;;;28.33;53.04;100605.25;5219692;55;1138718;-65
2023/08/24 16:27:44;;;;;;;11.20;3.27;;;;;;;28.21;53.64;100604.39;5240579;55;1138811;-64
2023/08/24 16:32:49;;;;;;;3.77;2.42;;;;;;;28.14;54.78;100602.79;5260474;55;1140882;-64
2023/08/24 16:37:55;;;;;;;13.08;2.95;;;;;;;28.15;55.19;100595.77;5187833;55;1138810;-66
2023/08/24 16:43:00;;;;;;;5.30;2.25;;;;;;;28.05;55.28;100596.03;5156984;55;1140832;-65
2023/08/24 16:48:06;;;;;;;7.55;2.17;;;;;;;27.93;55.52;100604.98;5260524;55;1138712;-66
2023/08/24 16:53:12;;;;;;;9.33;2.60;;;;;;;27.89;55.89;100595.63;5228078;55;1138715;-64
2023/08/24 16:58:18;;;;;;;16.87;2.60;;;;;;;27.87;56.38;100609.14;5242039;55;1139339;-66
2023/08/24 17:03:24;;;;;;;5.03;2.33;;;;;;;27.81;56.90;100604.61;4986166;57;1140952;-66
2023/08/24 17:08:29;;;;;;;9.00;4.25;;;;;;;27.80;58.23;100606.53;5044390;55;1138801;-64
2023/08/24 17:13:35;;;;;;;7.30;3.42;;;;;;;27.81;58.62;100601.89;5074128;56;1138975;-64
2023/08/24 17:18:41;;;;;;;6.25;3.85;;;;;;;27.82;58.97;100607.63;5074278;55;1139109;-64
2023/08/24 17:23:46;;;;;;;9.65;2.30;;;;;;;27.88;59.68;100612.16;5092686;56;1138710;-64
2023/08/24 17:28:52;;;;;;;11.15;2.70;;;;;;;27.77;61.31;100604.80;5089931;56;1138740;-65
2023/08/24 17:33:58;;;;;;;38.20;19.70;;;;;;;27.72;62.98;100604.64;5214436;55;1140727;-65
2023/08/24 17:39:05;;;;;;;38.28;13.43;;;;;;;27.58;63.66;100599.39;5260526;55;1142908;-64
2023/08/24 17:44:11;;;;;;;34.53;10.95;;;;;;;27.45;64.16;100585.94;5233926;55;1142660;-65
2023/08/24 17:49:16;;;;;;;52.10;16.70;;;;;;;27.32;65.32;100579.31;5210903;55;1143081;-65
2023/08/24 17:54:22;;;;;;;47.20;12.82;;;;;;;27.22;66.40;100585.78;5135951;55;1142710;-65
2023/08/24 17:59:27;;;;;;;45.10;11.03;;;;;;;27.14;67.23;100590.17;5253625;55;1143130;-65
2023/08/24 18:04:33;;;;;;;41.50;15.90;;;;;;;26.95;67.76;100601.00;5254475;55;1142981;-65
2023/08/24 18:09:39;;;;;;;31.40;14.30;;;;;;;26.82;68.84;100605.18;5254015;55;1143130;-66
2023/08/24 18:14:45;;;;;;;35.00;15.20;;;;;;;26.76;69.52;100607.94;5274764;55;1143102;-65
2023/08/24 18:19:50;;;;;;;44.10;14.93;;;;;;;26.57;70.94;100607.09;5253817;55;1143289;-65
2023/08/24 18:24:56;;;;;;;38.28;11.00;;;;;;;26.45;71.42;100613.73;5246434;55;1143136;-64
2023/08/24 18:30:02;;;;;;;30.20;7.92;;;;;;;26.41;71.96;100611.70;5274725;55;1142775;-66
2023/08/24 18:35:08;;;;;;;34.20;8.93;;;;;;;26.30;72.80;100618.64;5254278;55;1140720;-64
2023/08/24 18:40:14;;;;;;;19.35;7.12;;;;;;;26.01;72.40;100615.98;5253399;55;1140600;-64
2023/08/24 18:45:21;;;;;;;24.02;8.00;;;;;;;25.97;73.67;100610.71;5248170;55;1141028;-66
2023/08/24 18:50:26;;;;;;;32.75;7.50;;;;;;;25.92;74.26;100598.33;5197145;55;1141054;-64
2023/08/24 18:55:32;;;;;;;18.65;9.58;;;;;;;25.74;74.68;100598.20;5133743;55;1140966;-65
2023/08/24 19:00:38;;;;;;;11.50;7.67;;;;;;;25.50;75.39;100592.98;4991433;56;1140745;-64
2023/08/24 19:05:44;;;;;;;13.75;8.38;;;;;;;25.32;75.92;100588.78;5009502;56;1140944;-65
2023/08/24 19:10:52;;;;;;;15.08;6.05;;;;;;;25.16;76.43;100585.49;5061452;55;1140702;-66
2023/08/24 19:16:05;;;;;;;14.43;7.62;;;;;;;25.05;77.24;100584.80;5114463;55;1140860;-65
2023/08/24 19:21:12;;;;;;;8.78;5.97;;;;;;;24.99;78.23;100578.88;5122312;56;1140886;-65
2023/08/24 19:26:17;;;;;;;15.50;7.87;;;;;;;24.83;78.35;100576.06;5130759;56;1138975;-64
2023/08/24 19:31:23;;;;;;;19.55;10.15;;;;;;;24.73;78.80;100564.02;5094271;56;1140946;-64
2023/08/24 19:36:28;;;;;;;15.13;6.95;;;;;;;24.56;79.30;100555.50;5051430;56;1142760;-65
2023/08/24 19:41:34;;;;;;;7.83;6.55;;;;;;;24.39;80.30;100542.92;5072428;56;1140888;-65
2023/08/24 19:46:40;;;;;;;20.02;11.00;;;;;;;24.37;80.90;100542.81;4999583;57;1139114;-65
2023/08/24 19:51:45;;;;;;;22.20;11.22;;;;;;;24.24;81.04;100527.43;5017938;57;1142922;-65
2023/08/24 19:56:51;;;;;;;15.72;8.65;;;;;;;24.07;81.74;100524.79;5064244;56;1143206;-65
2023/08/24 20:01:57;;;;;;;11.60;7.07;;;;;;;24.01;82.47;100514.80;5191434;56;1141212;-64
2023/08/24 20:07:05;;;;;;;17.02;7.05;;;;;;;23.88;82.59;100511.56;5082431;57;1141129;-65
2023/08/24 20:12:12;;;;;;;9.85;5.92;;;;;;;23.85;82.98;100509.27;5071299;56;1140765;-66
2023/08/24 20:17:19;;;;;;;10.82;7.87;;;;;;;23.87;83.38;100516.65;5086500;56;1138828;-65
2023/08/24 20:22:26;;;;;;;12.10;6.33;;;;;;;23.90;83.37;100518.95;5065267;56;1140977;-65
2023/08/24 20:27:32;;;;;;;10.60;4.28;;;;;;;23.90;83.14;100523.00;5016898;57;1140748;-67
2023/08/24 20:32:38;;;;;;;15.43;4.97;;;;;;;23.87;83.18;100518.52;5078917;56;1141043;-65
2023/08/24 20:37:44;;;;;;;12.35;4.40;;;;;;;23.81;83.02;100520.19;5024540;56;1141302;-65
2023/08/24 20:42:49;;;;;;;6.62;4.20;;;;;;;23.70;82.66;100521.60;5094678;56;1140963;-66
2023/08/24 20:47:55;;;;;;;9.88;5.12;;;;;;;23.62;82.86;100523.16;5140544;56;1139152;-66
2023/08/24 20:53:02;;;;;;;10.60;4.20;;;;;;;23.53;83.07;100509.51;5081468;56;1138703;-67
2023/08/24 20:58:07;;;;;;;16.52;5.53;;;;;;;23.40;83.32;100510.79;5080238;57;1140909;-67
2023/08/24 21:03:13;;;;;;;17.50;7.03;;;;;;;23.27;82.98;100512.09;5145766;56;1140963;-66
2023/08/24 21:08:18;;;;;;;20.97;6.77;;;;;;;23.18;83.48;100507.92;5117640;55;1162990;-65
2023/08/24 21:13:24;;;;;;;16.67;6.60;;;;;;;23.10;83.61;100503.52;5050375;57;1140732;-64
2023/08/24 21:18:30;;;;;;;15.53;6.28;;;;;;;23.00;83.70;100503.06;5185001;54;1140842;-66
2023/08/24 21:23:35;;;;;;;18.98;6.25;;;;;;;22.93;84.27;100496.27;5207867;55;1140675;-67
2023/08/24 21:28:41;;;;;;;11.08;5.42;;;;;;;22.87;84.45;100488.16;5201535;55;1140863;-65
2023/08/24 21:33:47;;;;;;;11.22;4.40;;;;;;;22.79;84.66;100491.84;5227764;55;1140652;-65
2023/08/24 21:38:53;;;;;;;12.55;4.50;;;;;;;22.72;85.05;100475.61;5208051;55;1140808;-66
2023/08/24 21:43:58;;;;;;;10.38;4.40;;;;;;;22.64;85.30;100457.40;5176675;55;1140747;-65
2023/08/24 21:49:05;;;;;;;8.83;4.28;;;;;;;22.52;86.01;100444.17;5126734;56;1140803;-65
2023/08/24 21:54:11;;;;;;;9.97;4.80;;;;;;;22.31;86.17;100414.91;5023166;56;1138728;-65
2023/08/24 21:59:17;;;;;;;7.40;4.62;;;;;;;22.17;86.44;100401.55;5023387;56;1138787;-65
2023/08/24 22:04:22;;;;;;;8.10;4.60;;;;;;;22.00;86.71;100387.55;5198862;55;1139039;-66
2023/08/24 22:09:28;;;;;;;8.65;4.72;;;;;;;21.89;87.21;100387.55;5209032;55;1139144;-65
2023/08/24 22:14:33;;;;;;;7.25;4.22;;;;;;;21.84;87.56;100385.14;5237703;55;1139099;-65
2023/08/24 22:19:39;;;;;;;6.58;4.02;;;;;;;21.76;87.97;100365.40;5028851;57;1138700;-65
2023/08/24 22:24:44;;;;;;;12.80;7.35;;;;;;;21.66;87.90;100370.30;5203897;56;1138824;-65
2023/08/24 22:29:50;;;;;;;11.30;5.80;;;;;;;21.66;87.98;100373.50;5028681;57;1141180;-67
2023/08/24 22:34:56;;;;;;;35.83;27.48;;;;;;;21.68;87.75;100387.60;5251305;55;1140902;-65
2023/08/24 22:40:09;;;;;;;81.80;41.12;;;;;;;21.68;87.89;100395.67;5151754;56;1143255;-68
2023/08/24 22:45:14;;;;;;;288.57;138.77;;;;;;;21.72;87.85;100407.19;5245150;55;1143016;-65
2023/08/24 22:50:20;;;;;;;195.03;101.82;;;;;;;21.74;86.82;100403.79;5122387;56;1147039;-65
2023/08/24 22:55:25;;;;;;;148.13;76.60;;;;;;;21.65;86.53;100399.58;5150302;56;1147075;-66
2023/08/24 23:00:31;;;;;;;55.95;26.02;;;;;;;21.67;86.71;100406.13;5126756;56;1144906;-65
2023/08/24 23:05:37;;;;;;;19.45;9.10;;;;;;;21.68;86.34;100398.37;5120890;56;1143038;-65